This is the latest recevied weather packets stored in our database for station/object DB0NU-15. If no packets are shown the sender has not sent any weather packets the latest 10 day(s).
| Time | Temp. | Humidity | Pressure | Rain* | Wind** | Luminosity | Snow |
|---|---|---|---|---|---|---|---|
| 1777914067 | 18.89° C | 55% | 1012.7 hPa | 0 mm | - | - | - |
| 1777913464 | 18.89° C | 56% | 1013 hPa | 0 mm | - | - | - |
| 1777912861 | 19.44° C | 55% | 1013 hPa | 0 mm | - | - | - |
| 1777911654 | 20° C | 53% | 1013.3 hPa | 0 mm | - | - | - |
| 1777908033 | 21.11° C | 50% | 1013.4 hPa | 0 mm | - | - | - |
| 1777907430 | 21.11° C | 48% | 1013.4 hPa | 0 mm | - | - | - |
| 1777906826 | 21.11° C | 48% | 1013.4 hPa | 0 mm | - | - | - |
| 1777906223 | 21.67° C | 47% | 1013.5 hPa | 0 mm | - | - | - |
| 1777905620 | 21.67° C | 45% | 1013.4 hPa | 0 mm | - | - | - |
| 1777905016 | 21.11° C | 46% | 1013.5 hPa | 0 mm | - | - | - |
| 1777903870 | 21.67° C | 45% | 1013.6 hPa | 0 mm | - | - | - |
| 1777902663 | 22.22° C | 43% | 1013.7 hPa | 0 mm | - | - | - |
| 1777902060 | 22.22° C | 44% | 1013.8 hPa | 0 mm | - | - | - |
| 1777901456 | 22.78° C | 44% | 1013.9 hPa | 0 mm | - | - | - |
| 1777900853 | 22.78° C | 43% | 1013.9 hPa | 0 mm | - | - | - |
| 1777900250 | 21.67° C | 45% | 1014.1 hPa | 0 mm | - | - | - |
| 1777899646 | 21.67° C | 46% | 1014.1 hPa | 0 mm | - | - | - |
| 1777899044 | 22.22° C | 46% | 1014.2 hPa | 0 mm | - | - | - |
| 1777898439 | 21.67° C | 44% | 1014.3 hPa | 0 mm | - | - | - |
| 1777897836 | 22.22° C | 44% | 1014.4 hPa | 0 mm | - | - | - |
| 1777897232 | 21.67° C | 46% | 1014.4 hPa | 0 mm | - | - | - |
| 1777896629 | 21.11° C | 47% | 1014.5 hPa | 0 mm | - | - | - |
| 1777896025 | 21.11° C | 46% | 1014.7 hPa | 0 mm | - | - | - |
| 1777894818 | 20.56° C | 47% | 1014.7 hPa | 0 mm | - | - | - |
| 1777894215 | 21.11° C | 46% | 1014.6 hPa | 0 mm | - | - | - |
* Rain latest hour (hover to see other rain measurements)
** Current wind speed in m/s (hover to see current wind gust speed)